Impacts METAR Board
IDs:

KSFO - San Francisco Intl, CA, US

Updated at: 0900 UTC 18 Oct 2018
Potential Impact None Slight Moderate High
Time 17/21Z 17/22Z 17/23Z 18/00Z 18/01Z 18/02Z 18/03Z 18/04Z 18/05Z 18/06Z 18/07Z 18/08Z 18/09Z
Temp68 64 61 61 58 55 55 54 54 52 53 53 51
Dewpt52 51 51 51 50 50 50 49 49 49 49 49 48
Altim30.06 30.04 30.04 30.02 30.03 30.04 30.06 30.07 30.08 30.09 30.09 30.10 30.10
VIS10 10 10 10 10 10 10 10 10 10 10 10 10
CIG-- -- -- -- -- -- -- -- -- -- -- -- --
CoverFEWFEWFEWFEWFEWFEWFEWFEWFEWFEWFEWFEWFEW
FltCatVFRVFRVFRVFRVFRVFRVFRVFRVFRVFRVFRVFRVFR
WX--------------------------
WDir300290300290290290290290290290280280280
WSpd11 16 16 17 18 16 13 14 8 9 9 7 4
WGst-- -- -- -- -- -- -- -- -- -- -- -- --
Raw hourly METARs
KSFO 172056Z 30011KT 10SM FEW008 20/11 A3006 RMK AO2 SLP179 T02000111 56013
KSFO 172156Z 29016KT 10SM FEW008 18/11 A3004 RMK AO2 SLP172 T01780106
KSFO 172256Z 30016KT 10SM FEW008 16/11 A3004 RMK AO2 SLP171 T01610106
KSFO 172356Z 29017KT 10SM FEW008 16/11 A3002 RMK AO2 SLP167 T01610106 10200 20144 56012
KSFO 180056Z 29018KT 10SM FEW008 14/10 A3003 RMK AO2 SLP168 T01440100
KSFO 180156Z 29016KT 10SM FEW008 13/10 A3004 RMK AO2 SLP172 T01280100
KSFO 180256Z 29013KT 10SM FEW008 13/10 A3006 RMK AO2 SLP178 T01280100 53011
KSFO 180356Z 29014KT 10SM FEW008 12/09 A3007 RMK AO2 SLP182 T01220094
KSFO 180456Z 29008KT 10SM FEW009 12/09 A3008 RMK AO2 SLP185 T01220094
KSFO 180556Z 29009KT 10SM FEW009 11/09 A3009 RMK AO2 SLP188 T01110094 10161 20111 51010
KSFO 180656Z 28009KT 10SM FEW009 12/09 A3009 RMK AO2 SLP190 T01170094
KSFO 180756Z 28007KT 10SM FEW200 12/09 A3010 RMK AO2 SLP192 T01170094 402060094
KSFO 180856Z 28004KT 10SM FEW200 11/09 A3010 RMK AO2 SLP193 T01060089 51005



Page loaded:  09:46 UTC  |   02:46 AM Pacific  |   03:46 AM Mountain  |   04:46 AM Central  |   05:46 AM Eastern

 

ADVISORIES

FORECASTS

FORECASTS

OBSERVATIONS

USER TOOLS

ABOUT US